Flight Track Log - Related Links

Times and Time Zones

All times are in EDT time to prevent confusion due to time zone crossing. See the N677F flight status page for this flight to view local times or setup timezone preferences in your user account.

Time Position Orientation Groundspeed Altitude Reporting Facility
EDT Latitude Longitude Course Direction KTS MPH feet Rate Location/Type
Wed 05:04:09 AM 39.8667 -105.0500 180° South 226 260 7,800  Level Denver TRACON
Wed 05:05:09 AM 39.8500 -104.9500 102° East 276 318 9,700 1,670 Climbing Denver TRACON
Wed 05:06:04 AM 39.8350 -104.8572 102° East 311 358 11,000 2,191 Climbing Denver Center
Wed 05:07:04 AM 39.8153 -104.7175 100° East 367 422 13,900 2,479 Climbing Denver Center
Wed 05:08:05 AM 39.8236 -104.5875 85° East 373 429 16,000 2,083 Climbing Denver Center
Wed 05:09:00 AM 39.9088 -105.1172 180° South  Level Estimated
Wed 05:09:05 AM 39.8561 -104.4519 73° East 393 452 18,100  Level Denver Center
Wed 05:10:05 AM 39.8900 -104.3150 72° East 401 461 20,600 2,231 Climbing Denver Center
Wed 05:11:06 AM 39.9236 -104.1719 73° East 417 480 22,600 1,934 Climbing Denver Center
Wed 05:12:06 AM 39.9567 -104.0342 73° East 432 497 24,500 1,850 Climbing Denver Center
Wed 05:13:06 AM 39.9942 -103.8811 72° East 445 512 26,300 1,686 Climbing Denver Center
Wed 05:14:07 AM 40.0333 -103.7167 73° East 473 544 27,900 1,140 Climbing Denver Center
Wed 05:15:07 AM 40.0728 -103.5450 73° East 501 577 28,600 1,050 Climbing Denver Center
Wed 05:16:07 AM 40.1142 -103.3631 73° East 520 598 30,000 1,289 Climbing Denver Center
Wed 05:17:08 AM 40.1550 -103.1769 74° East 533 613 31,200 2,083 Climbing Denver Center
Wed 05:18:08 AM 40.1817 -102.9872 80° East 529 609 34,200 2,600 Climbing Denver Center
Wed 05:19:08 AM 40.2067 -102.8100 79° East 501 577 36,400 1,884 Climbing Denver Center
Wed 05:20:09 AM 40.2331 -102.6153 80° East 489 563 38,000 1,537 Climbing Denver Center
Wed 05:21:09 AM 40.2558 -102.4481 80° East 488 562 39,500 1,300 Climbing Denver Center
Wed 05:22:09 AM 40.2869 -102.2622 78° East 470 541 40,600 694 Climbing Denver Center
Wed 05:23:10 AM 40.3789 -102.1539 42° Northeast 474 545 40,900 198 Climbing Denver Center
Wed 05:24:10 AM 40.4911 -102.1969 344° North 458 527 41,000 50 Climbing Denver Center
Wed 05:25:10 AM 40.5425 -102.3389 296° West 449 517 41,000  Level Denver Center
Wed 05:26:11 AM 40.5981 -102.5039 294° West 450 518 41,000  Level Denver Center
Wed 05:27:11 AM 40.7133 -102.5194 354° North 454 522 41,000  Level Denver Center
Wed 05:28:11 AM 40.7686 -102.3817 62° Northeast 472 543 41,000  Level Denver Center
Wed 05:29:12 AM 40.7144 -102.2069 112° Southeast 465 535 41,000  Level Denver Center
Wed 05:30:12 AM 40.6592 -102.0600 116° Southeast 467 537 41,000  Level Denver Center
Wed 05:31:12 AM 40.6083 -101.9156 115° Southeast 458 527 41,000  Level Denver Center
Wed 05:32:13 AM 40.5925 -101.7522 97° East 473 544 41,000  Level Denver Center
Wed 05:33:13 AM 40.5747 -101.5608 97° East 473 544 41,000  Level Denver Center
Wed 05:34:13 AM 40.5608 -101.3958 96° East 476 548 41,000  Level Denver Center
Wed 05:35:13 AM 40.5453 -101.2258 97° East 488 562 41,000  Level Denver Center
Wed 05:36:14 AM 40.5364 -101.0278 93° East 490 564 41,000  Level Denver Center
Wed 05:37:14 AM 40.5306 -100.8617 93° East 482 555 41,000  Level Denver Center
Wed 05:38:14 AM 40.5253 -100.6928 92° East 487 560 41,000  Level Denver Center
Wed 05:39:15 AM 40.5183 -100.4931 93° East 495 570 41,000  Level Denver Center
Wed 05:40:15 AM 40.5128 -100.3253 92° East 486 559 41,000  Level Denver Center
Wed 05:41:15 AM 40.5056 -100.1575 93° East 483 556 41,000  Level Denver Center
Wed 05:42:16 AM 40.4992 -99.9611 92° East 485 558 41,000  Level Denver Center
Wed 05:43:16 AM 40.5036 -99.8042 88° East 487 560 41,000  Level Denver Center
Wed 05:44:16 AM 40.5078 -99.6275 88° East 486 559 41,000  Level Denver Center
Wed 05:45:17 AM 40.5111 -99.4481 89° East 492 566 41,000  Level Denver Center
Wed 05:45:41 AM 40.5125 -99.3753 89° East 496 571 41,000  Level Denver Center
Wed 05:46:41 AM 40.5158 -99.1950 89° East 497 572 41,000  Level Denver Center
Wed 05:47:13 AM 40.5175 -99.0886 89° East 496 571 41,000  Level Minneapolis Center
Wed 05:48:13 AM 40.5194 -98.9083 89° East 497 572 41,000  Level Minneapolis Center
Wed 05:49:14 AM 40.5219 -98.7294 89° East 496 571 41,000  Level Minneapolis Center
Wed 05:50:14 AM 40.5244 -98.5514 89° East 494 568 41,000  Level Minneapolis Center
Wed 05:51:14 AM 40.5256 -98.3719 89° East 493 567 41,000  Level Minneapolis Center
Wed 05:52:14 AM 40.5278 -98.1939 89° East 492 566 41,000  Level Minneapolis Center
Wed 05:53:15 AM 40.5300 -98.0158 89° East 490 564 41,000  Level Minneapolis Center
Wed 05:54:15 AM 40.6031 -97.8786 55° Northeast 493 567 41,000  Level Minneapolis Center
Wed 05:55:15 AM 40.7325 -97.8678 North 474 545 41,000  Level Minneapolis Center
Wed 05:56:16 AM 40.8581 -97.8653 North 462 532 41,000  Level Minneapolis Center
Wed 05:57:16 AM 41.0094 -97.8150 14° North 467 537 41,000  Level Minneapolis Center
Wed 05:58:16 AM 41.1375 -97.7653 16° North 476 548 41,000  Level Minneapolis Center
Wed 05:59:17 AM 41.2642 -97.7153 17° North 479 551 41,000  Level Minneapolis Center
Wed 06:00:17 AM 41.3739 -97.6733 16° North 476 548 41,000  Level Minneapolis Center
Wed 06:01:17 AM 41.5014 -97.6258 16° North 475 547 41,000  Level Minneapolis Center
Wed 06:02:18 AM 41.6272 -97.5794 15° North 471 542 41,000  Level Minneapolis Center
Wed 06:03:18 AM 41.7517 -97.5319 16° North 465 535 41,000  Level Minneapolis Center
Wed 06:04:18 AM 41.8781 -97.4836 16° North 467 537 41,000  Level Minneapolis Center
Wed 06:05:19 AM 42.0058 -97.4342 16° North 473 544 41,000  Level Minneapolis Center
Wed 06:06:19 AM 42.1317 -97.4203 North 464 534 41,000  Level Minneapolis Center
Wed 06:07:19 AM 42.1842 -97.5564 298° West 438 504 41,000  Level Minneapolis Center
Wed 06:08:20 AM 42.1467 -97.7067 251° West 424 488 41,000  Level Minneapolis Center
Wed 06:09:20 AM 42.1072 -97.8558 250° West 424 488 41,000  Level Minneapolis Center
Wed 06:10:20 AM 42.0706 -98.0069 252° West 425 489 41,000  Level Minneapolis Center
Wed 06:11:21 AM 42.0639 -98.1858 267° West 434 499 41,000  Level Minneapolis Center
Wed 06:12:21 AM 42.0586 -98.3428 267° West 428 493 41,000  Level Minneapolis Center
Wed 06:12:57 AM 42.0567 -98.4361 268° West 422 486 41,000  Level Minneapolis Center
Wed 06:13:57 AM 42.0514 -98.5919 267° West 419 482 41,000  Level Minneapolis Center
Wed 06:14:58 AM 42.0461 -98.7489 267° West 421 484 41,000  Level Minneapolis Center
Wed 06:15:58 AM 42.0422 -98.9058 268° West 422 486 41,000  Level Minneapolis Center
Wed 06:16:58 AM 42.0364 -99.0628 267° West 422 486 41,000  Level Minneapolis Center
Wed 06:17:26 AM 42.0336 -99.1258 267° West 426 490 41,000  Level Denver Center
Wed 06:18:26 AM 42.0281 -99.2842 267° West 425 489 41,000  Level Denver Center
Wed 06:18:59 AM 42.0258 -99.3783 268° West 423 487 41,000  Level Minneapolis Center
Wed 06:19:59 AM 42.0194 -99.5347 267° West 422 486 41,000  Level Minneapolis Center
Wed 06:20:27 AM 42.0147 -99.6292 266° West 421 484 41,000  Level Denver Center
Wed 06:21:27 AM 42.0094 -99.7731 267° West 426 490 41,000  Level Denver Center
Wed 06:22:28 AM 42.0031 -99.9214 267° West 421 484 41,000  Level Denver Center
Wed 06:23:40 AM 41.9992 -100.1242 269° West 423 487 41,000  Level Denver Center
Wed 06:24:40 AM 42.0003 -100.2764 271° West 425 489 41,000  Level Denver Center
Wed 06:25:40 AM 42.0003 -100.4531 270° West 425 489 41,000  Level Denver Center
Wed 06:26:41 AM 41.9994 -100.6069 270° West 430 495 41,000  Level Denver Center
Wed 06:27:41 AM 41.9981 -100.7586 269° West 428 493 41,000  Level Denver Center
Wed 06:28:41 AM 41.9969 -100.9342 270° West 422 486 41,000  Level Denver Center
Wed 06:29:41 AM 41.9956 -101.0883 269° West 431 496 41,000  Level Denver Center
Wed 06:30:42 AM 41.9944 -101.2414 269° West 431 496 41,000  Level Denver Center
Wed 06:31:42 AM 41.9922 -101.3950 269° West 429 494 41,000  Level Denver Center
Wed 06:32:42 AM 41.9908 -101.5728 269° West 428 493 41,000  Level Denver Center
Wed 06:33:42 AM 41.9875 -101.7275 268° West 432 497 41,000  Level Denver Center
Wed 06:34:43 AM 41.9853 -101.8844 269° West 438 504 41,000  Level Denver Center
Wed 06:35:43 AM 41.9819 -102.0650 269° West 435 501 41,000  Level Denver Center
Wed 06:36:43 AM 41.9797 -102.2197 269° West 434 499 41,000  Level Denver Center
Wed 06:37:43 AM 41.9756 -102.3914 268° West 433 498 41,000  Level Denver Center
Wed 06:38:44 AM 41.9744 -102.5481 270° West 437 503 41,000  Level Denver Center
Wed 06:39:44 AM 42.0550 -102.6561 315° West 449 517 41,000  Level Denver Center
Wed 06:40:44 AM 42.1761 -102.6086 16° North 478 550 41,000  Level Denver Center
Wed 06:41:44 AM 42.3083 -102.5214 26° Northeast 475 547 41,000  Level Denver Center
Wed 06:42:45 AM 42.4319 -102.4803 14° North 482 555 41,000  Level Denver Center
Wed 06:43:45 AM 42.5586 -102.4564 North 480 552 41,000  Level Denver Center
Wed 06:44:45 AM 42.7061 -102.4317 North 481 554 41,000  Level Denver Center
Wed 06:45:45 AM 42.8311 -102.3928 13° North 493 567 41,000  Level Denver Center
Wed 06:46:46 AM 42.8875 -102.2378 64° Northeast 502 578 41,000  Level Denver Center
Wed 06:47:46 AM 42.8647 -102.0619 100° East 497 572 41,000  Level Denver Center
Wed 06:48:46 AM 42.8350 -101.8606 101° East 488 562 41,000  Level Denver Center
Wed 06:49:46 AM 42.8164 -101.6986 99° East 494 568 41,000  Level Denver Center
Wed 06:50:46 AM 42.8125 -101.4881 91° East 497 572 41,000  Level Denver Center
Wed 06:51:46 AM 42.8125 -101.3047 90° East 500 575 41,000  Level Denver Center
Wed 06:52:47 AM 42.8125 -101.1139 90° East 504 580 41,000  Level Denver Center
Wed 06:53:47 AM 42.8139 -100.9258 89° East 499 574 41,000  Level Denver Center
Wed 06:54:47 AM 42.8353 -100.7436 81° East 504 580 41,000  Level Denver Center
Wed 06:55:12 AM 42.8758 -100.6947 41° Northeast 505 581 41,000  Level Minneapolis Center
Wed 06:56:12 AM 42.9872 -100.5906 34° Northeast 493 567 41,000  Level Minneapolis Center
Wed 06:56:47 AM 43.0517 -100.5208 38° Northeast 487 560 41,000  Level Denver Center
Wed 06:57:48 AM 43.1594 -100.4119 36° Northeast 484 557 41,000  Level Denver Center
Wed 06:58:13 AM 43.2033 -100.3686 36° Northeast 485 558 41,000  Level Minneapolis Center
Wed 06:59:14 AM 43.3125 -100.2581 36° Northeast 488 562 41,000  Level Minneapolis Center
Wed 06:59:48 AM 43.3783 -100.1869 38° Northeast 492 566 41,000  Level Denver Center
Wed 07:00:14 AM 43.4219 -100.1444 35° Northeast 491 565 41,000  Level Minneapolis Center
Wed 07:01:15 AM 43.5292 -100.0339 37° Northeast 488 562 41,000  Level Minneapolis Center
Wed 07:02:15 AM 43.5519 -99.8494 80° East 509 586 41,000  Level Minneapolis Center
Wed 07:03:16 AM 43.5378 -99.6625 96° East 500 575 41,000  Level Minneapolis Center
Wed 07:04:16 AM 43.5342 -99.4722 91° East 499 574 41,000  Level Minneapolis Center
Wed 07:05:16 AM 43.5353 -99.2817 89° East 500 575 41,000  Level Minneapolis Center
Wed 07:06:17 AM 43.5367 -99.0906 89° East 500 575 41,000  Level Minneapolis Center
Wed 07:07:17 AM 43.5372 -98.8986 90° East 503 579 41,000  Level Minneapolis Center
Wed 07:08:18 AM 43.5378 -98.7069 90° East 502 578 41,000  Level Minneapolis Center
Wed 07:09:18 AM 43.5372 -98.4917 90° East 496 571 41,000  Level Minneapolis Center
Wed 07:10:19 AM 43.5369 -98.3019 90° East 497 572 41,000  Level Minneapolis Center
Wed 07:11:19 AM 43.5364 -98.1106 90° East 500 575 41,000  Level Minneapolis Center
Wed 07:12:20 AM 43.5350 -97.9192 91° East 501 577 41,000  Level Minneapolis Center
Wed 07:13:20 AM 43.5364 -97.7319 89° East 493 567 41,000  Level Minneapolis Center
Wed 07:14:21 AM 43.5403 -97.5425 88° East 494 568 41,000  Level Minneapolis Center
Wed 07:15:22 AM 43.6253 -97.4081 49° Northeast 484 557 41,000  Level Minneapolis Center
Wed 07:16:22 AM 43.7561 -97.4133 358° North 462 532 41,000  Level Minneapolis Center
Wed 07:17:23 AM 43.8831 -97.4269 356° North 456 525 41,000  Level Minneapolis Center
Wed 07:18:23 AM 44.0083 -97.4403 356° North 453 521 41,000  Level Minneapolis Center
Wed 07:19:24 AM 44.1328 -97.4556 355° North 450 518 41,000  Level Minneapolis Center
Wed 07:20:25 AM 44.2575 -97.4694 355° North 447 514 41,000  Level Minneapolis Center
Wed 07:21:25 AM 44.3842 -97.4839 355° North 452 520 41,000  Level Minneapolis Center
Wed 07:22:26 AM 44.5114 -97.4981 355° North 457 526 41,000  Level Minneapolis Center
Wed 07:23:27 AM 44.6386 -97.5144 355° North 458 527 41,000  Level Minneapolis Center
Wed 07:24:27 AM 44.7625 -97.5536 347° North 468 539 41,000  Level Minneapolis Center
Wed 07:25:28 AM 44.7986 -97.7031 289° West 439 505 41,000 -197 Level Minneapolis Center
Wed 07:26:29 AM 44.7728 -97.9011 260° West 432 497 40,600 -496 Descending Minneapolis Center
Wed 07:27:29 AM 44.7608 -98.0650 264° West 429 494 40,000 -298 Descending Minneapolis Center
Wed 07:28:30 AM 44.7625 -98.2264 271° West 420 483 40,000  Level Minneapolis Center
Wed 07:29:31 AM 44.7631 -98.3972 270° West 420 483 40,000  Level Minneapolis Center
Wed 07:30:32 AM 44.7631 -98.5639 270° West 424 488 40,000  Level Minneapolis Center
Wed 07:31:32 AM 44.7622 -98.7303 270° West 426 490 40,000  Level Minneapolis Center
Wed 07:32:33 AM 44.7619 -98.8956 270° West 424 488 40,000  Level Minneapolis Center
Wed 07:33:34 AM 44.7614 -99.0600 270° West 422 486 40,000  Level Minneapolis Center
Wed 07:34:35 AM 44.7597 -99.2272 269° West 425 489 40,000  Level Minneapolis Center
Wed 07:35:36 AM 44.7586 -99.3944 270° West 427 491 40,000  Level Minneapolis Center
Wed 07:36:37 AM 44.7561 -99.5606 269° West 424 488 40,000  Level Minneapolis Center
Wed 07:37:38 AM 44.7544 -99.7292 269° West 428 493 40,000  Level Minneapolis Center
Wed 07:38:39 AM 44.7475 -99.8989 267° West 429 494 40,000  Level Minneapolis Center
Wed 07:39:40 AM 44.7050 -100.0567 249° West 427 491 40,000  Level Minneapolis Center
Wed 07:40:41 AM 44.6406 -100.1933 237° Southwest 419 482 40,000  Level Minneapolis Center
Wed 07:41:42 AM 44.5747 -100.3306 236° Southwest 420 483 40,000  Level Minneapolis Center
Wed 07:42:43 AM 44.5092 -100.4689 236° Southwest 424 488 40,000  Level Minneapolis Center
Wed 07:43:44 AM 44.4428 -100.6078 236° Southwest 428 493 40,000  Level Minneapolis Center
Wed 07:44:45 AM 44.3758 -100.7458 236° Southwest 428 493 40,000  Level Minneapolis Center
Wed 07:45:46 AM 44.3075 -100.8850 236° Southwest 431 496 40,000  Level Minneapolis Center
Wed 07:46:47 AM 44.2400 -101.0233 236° Southwest 431 496 40,000  Level Minneapolis Center
Wed 07:47:48 AM 44.1725 -101.1642 236° Southwest 434 499 40,000  Level Minneapolis Center
Wed 07:48:49 AM 44.1233 -101.3544 250° West 436 502 40,000 49 Level Minneapolis Center
Wed 07:49:50 AM 44.0858 -101.5142 252° West 436 502 40,100 443 Climbing Minneapolis Center
Wed 07:50:51 AM 44.0486 -101.6728 252° West 435 501 40,900 443 Climbing Minneapolis Center
Wed 07:51:52 AM 44.0094 -101.8325 251° West 435 501 41,000 49 Climbing Minneapolis Center
Wed 07:52:53 AM 43.9711 -101.9894 251° West 433 498 41,000  Level Minneapolis Center
Wed 07:53:11 AM 43.9628 -102.0194 249° West 431 496 41,000  Level Denver Center
Wed 07:54:12 AM 43.9269 -102.1739 252° West 424 488 41,000  Level Denver Center
Wed 07:55:12 AM 43.8892 -102.3269 251° West 421 484 41,000  Level Denver Center
Wed 07:56:13 AM 43.8472 -102.5089 252° West 423 487 41,000  Level Denver Center
Wed 07:57:13 AM 43.8089 -102.6586 251° West 429 494 41,000  Level Denver Center
Wed 07:58:13 AM 43.7706 -102.8089 251° West 432 497 41,000  Level Denver Center
Wed 07:59:14 AM 43.7272 -102.9803 251° West 426 490 41,000  Level Denver Center
Wed 08:00:14 AM 43.6911 -103.1300 252° West 428 493 41,000  Level Denver Center
Wed 08:01:15 AM 43.6528 -103.2778 250° West 428 493 41,000  Level Denver Center
Wed 08:02:15 AM 43.6158 -103.4278 251° West 431 496 41,000  Level Denver Center
Wed 08:03:15 AM 43.5736 -103.5986 251° West 425 489 41,000  Level Denver Center
Wed 08:04:16 AM 43.5392 -103.7475 252° West 425 489 41,000  Level Denver Center
Wed 08:05:16 AM 43.4514 -103.8303 214° Southwest 431 496 41,000 50 Level Denver Center
Wed 08:06:17 AM 43.3144 -103.8108 174° South 439 505 41,100  Climbing Denver Center
Wed 08:07:17 AM 43.1956 -103.8069 179° South 444 511 41,000 -50 Descending Denver Center
Wed 08:08:18 AM 43.0764 -103.8036 179° South 444 511 41,000  Level Denver Center
Wed 08:09:18 AM 42.9589 -103.8011 179° South 441 507 41,000  Level Denver Center
Wed 08:10:19 AM 42.8261 -103.7975 179° South 429 494 41,000  Level Denver Center
Wed 08:11:20 AM 42.7078 -103.7944 179° South 439 505 41,000  Level Denver Center
Wed 08:12:20 AM 42.5869 -103.7919 179° South 448 516 41,000  Level Denver Center
Wed 08:13:21 AM 42.4503 -103.7897 179° South 440 506 41,000  Level Denver Center
Wed 08:14:21 AM 42.3297 -103.7867 179° South 437 503 41,000  Level Denver Center
Wed 08:15:22 AM 42.2147 -103.7836 179° South 441 507 41,000  Level Denver Center
Wed 08:16:23 AM 42.0775 -103.7783 178° South 442 509 41,000  Level Denver Center
Wed 08:17:23 AM 41.9669 -103.8044 190° South 427 491 41,000  Level Denver Center
Wed 08:18:24 AM 41.9447 -103.9422 258° West 422 486 41,000  Level Denver Center
Wed 08:19:24 AM 41.9633 -104.0883 280° West 416 479 41,000  Level Denver Center
Wed 08:20:25 AM 41.9850 -104.2572 280° West 412 474 41,000  Level Denver Center
Wed 08:21:26 AM 41.9864 -104.3819 271° West 414 476 41,000  Level Denver Center
Wed 08:22:26 AM 41.9786 -104.5536 267° West 411 473 41,000  Level Denver Center
Wed 08:23:27 AM 41.9708 -104.7239 267° West 410 472 41,000  Level Denver Center
Wed 08:24:28 AM 41.9631 -104.8664 266° West 403 464 41,000  Level Denver Center
Wed 08:25:29 AM 41.9556 -105.0092 266° West 399 459 41,000  Level Denver Center
Wed 08:26:29 AM 41.9578 -105.1756 271° West 400 460 41,000  Level Denver Center
Wed 08:27:30 AM 41.9622 -105.3211 272° West 405 466 41,000  Level Denver Center
Wed 08:28:31 AM 41.9658 -105.4664 272° West 404 465 41,000  Level Denver Center
Wed 08:29:32 AM 41.9694 -105.6114 272° West 407 468 41,000  Level Denver Center
Wed 08:30:32 AM 41.9736 -105.7806 272° West 407 468 41,000  Level Denver Center
Wed 08:31:33 AM 41.9786 -105.9303 273° West 416 479 41,000  Level Denver Center
Wed 08:32:34 AM 41.9825 -106.0822 272° West 420 483 41,000  Level Denver Center
Wed 08:33:35 AM 41.9858 -106.2561 272° West 419 482 41,000  Level Denver Center
Wed 08:34:36 AM 41.9872 -106.4067 271° West 421 484 41,000  Level Denver Center
Wed 08:35:37 AM 41.9917 -106.5683 272° West 429 494 41,000  Level Denver Center
Wed 08:36:37 AM 41.9958 -106.7467 272° West 429 494 41,000  Level Denver Center
Wed 08:37:38 AM 41.9972 -106.8986 271° West 426 490 41,000  Level Denver Center
Wed 08:38:39 AM 42.0000 -107.0508 271° West 427 491 41,000  Level Denver Center
Wed 08:39:40 AM 42.0025 -107.2297 271° West 430 495 41,000  Level Denver Center
Wed 08:40:41 AM 42.0039 -107.3836 271° West 432 497 41,000  Level Denver Center
Wed 08:41:42 AM 42.0225 -107.5325 280° West 433 498 41,000  Level Denver Center
Wed 08:42:28 AM 42.0647 -107.6456 297° West 434 499 41,000  Level Salt Lake Center
Wed 08:43:28 AM 42.0764 -107.7936 276° West 427 491 41,000  Level Salt Lake Center
Wed 08:44:29 AM 42.0525 -107.9681 260° West 428 493 41,000  Level Salt Lake Center
Wed 08:45:30 AM 42.0344 -108.1228 261° West 437 503 41,000  Level Salt Lake Center
Wed 08:46:30 AM 42.0178 -108.2733 262° West 429 494 41,000  Level Salt Lake Center
Wed 08:47:31 AM 42.0114 -108.4483 267° West 420 483 41,000  Level Salt Lake Center
Wed 08:48:32 AM 42.0117 -108.5992 270° West 423 487 41,000  Level Salt Lake Center
Wed 08:49:32 AM 42.0114 -108.7511 270° West 425 489 41,000  Level Salt Lake Center
Wed 08:50:33 AM 42.0117 -108.9275 270° West 426 490 41,000  Level Salt Lake Center
Wed 08:51:34 AM 42.0103 -109.0783 269° West 424 488 41,000  Level Salt Lake Center
Wed 08:52:34 AM 42.0103 -109.2553 270° West 426 490 41,000  Level Salt Lake Center
Wed 08:53:35 AM 42.0092 -109.4064 269° West 426 490 41,000  Level Salt Lake Center
Wed 08:54:36 AM 42.0075 -109.5594 269° West 428 493 41,000  Level Salt Lake Center
Wed 08:55:37 AM 42.0053 -109.7372 269° West 428 493 41,000  Level Salt Lake Center
Wed 08:56:37 AM 42.0042 -109.8872 269° West 423 487 41,000  Level Salt Lake Center
Wed 08:57:38 AM 41.9831 -110.0303 259° West 423 487 41,000  Level Salt Lake Center
Wed 08:58:39 AM 41.8567 -110.0608 190° South 448 516 41,000  Level Salt Lake Center
Wed 08:59:40 AM 41.7381 -110.0536 177° South 446 513 41,000  Level Salt Lake Center
Wed 09:00:41 AM 41.6225 -110.0472 178° South 439 505 41,000  Level Salt Lake Center
Wed 09:01:41 AM 41.4872 -110.0369 177° South 438 504 41,000  Level Salt Lake Center
Wed 09:02:42 AM 41.3697 -110.0275 177° South 442 509 41,000  Level Salt Lake Center
Wed 09:03:43 AM 41.2353 -110.0178 177° South 438 504 41,000  Level Salt Lake Center
Wed 09:04:44 AM 41.1189 -110.0103 177° South 437 503 41,000  Level Salt Lake Center
Wed 09:05:45 AM 41.0017 -110.0039 178° South 442 509 41,000  Level Salt Lake Center
Wed 09:06:45 AM 40.9019 -110.0833 211° Southwest 405 466 41,000  Level Salt Lake Center
Wed 09:07:46 AM 40.8675 -110.2172 251° West 403 464 41,000  Level Salt Lake Center
Wed 09:08:47 AM 40.8306 -110.3558 251° West 414 476 41,000  Level Salt Lake Center
Wed 09:09:48 AM 40.7903 -110.5150 252° West 410 472 41,000  Level Salt Lake Center
Wed 09:10:49 AM 40.7544 -110.6553 251° West 405 466 41,000  Level Salt Lake Center
Wed 09:11:50 AM 40.7181 -110.7967 251° West 407 468 41,000  Level Salt Lake Center
Wed 09:12:51 AM 40.6989 -110.9400 260° West 404 465 41,000  Level Salt Lake Center
Wed 09:13:52 AM 40.7975 -111.0219 328° Northwest 443 510 41,000  Level Salt Lake Center
Wed 09:14:53 AM 40.9322 -111.0014 North 486 559 41,000  Level Salt Lake Center
Wed 09:15:54 AM 41.0656 -111.0075 358° North 482 555 41,000  Level Salt Lake Center
Wed 09:16:54 AM 41.1939 -111.0372 350° North 474 545 41,000  Level Salt Lake Center
Wed 09:17:55 AM 41.3206 -111.0703 349° North 468 539 41,000  Level Salt Lake Center
Wed 09:18:56 AM 41.4731 -111.1114 349° North 470 541 41,000  Level Salt Lake Center
Wed 09:19:57 AM 41.6031 -111.1458 349° North 476 548 41,000  Level Salt Lake Center
Wed 09:20:58 AM 41.7322 -111.1814 348° North 478 550 41,000  Level Salt Lake Center
Wed 09:21:59 AM 41.8608 -111.2147 349° North 473 544 41,000  Level Salt Lake Center
Wed 09:23:01 AM 41.9897 -111.2492 349° North 474 545 41,000  Level Salt Lake Center
Wed 09:24:02 AM 42.1219 -111.2636 355° North 476 548 41,000  Level Salt Lake Center
Wed 09:25:03 AM 42.2536 -111.2731 357° North 475 547 41,000  Level Salt Lake Center
Wed 09:26:04 AM 42.3850 -111.2842 356° North 475 547 41,000  Level Salt Lake Center
Wed 09:27:05 AM 42.5189 -111.2944 357° North 481 554 41,000  Level Salt Lake Center
Wed 09:28:06 AM 42.6514 -111.3067 356° North 477 549 41,000  Level Salt Lake Center
Wed 09:29:07 AM 42.7989 -111.3156 357° North 480 552 41,000  Level Salt Lake Center
Wed 09:30:08 AM 42.9283 -111.3269 356° North 485 558 41,000  Level Salt Lake Center
Wed 09:31:09 AM 43.0783 -111.3394 357° North 483 556 41,000  Level Salt Lake Center
Wed 09:32:10 AM 43.2086 -111.3489 357° North 487 560 41,000  Level Salt Lake Center
Wed 09:33:12 AM 43.3592 -111.3619 356° North 486 559 41,000  Level Salt Lake Center
Wed 09:34:13 AM 43.4878 -111.3717 357° North 483 556 41,000  Level Salt Lake Center
Wed 09:35:14 AM 43.6167 -111.3572 North 490 564 41,000  Level Salt Lake Center
Wed 09:36:15 AM 43.6831 -111.1722 64° Northeast 507 583 41,000  Level Salt Lake Center
Wed 09:37:17 AM 43.6622 -110.9892 99° East 505 581 41,000  Level Salt Lake Center
Wed 09:38:18 AM 43.6339 -110.7731 100° East 513 590 41,000  Level Salt Lake Center
Wed 09:39:19 AM 43.6044 -110.5922 103° East 510 587 41,000  Level Salt Lake Center
Wed 09:40:20 AM 43.5750 -110.4194 103° East 491 565 41,000  Level Salt Lake Center
Wed 09:41:22 AM 43.5564 -110.2072 97° East 504 580 41,000  Level Salt Lake Center
Wed 09:42:23 AM 43.5508 -110.0239 92° East 501 577 41,000  Level Salt Lake Center
Wed 09:43:24 AM 43.5461 -109.8094 92° East 500 575 41,000  Level Salt Lake Center
Wed 09:44:26 AM 43.5422 -109.6283 92° East 496 571 41,000  Level Salt Lake Center
Wed 09:45:27 AM 43.5367 -109.4214 92° East 505 581 41,000  Level Salt Lake Center
Wed 09:46:28 AM 43.5311 -109.2342 92° East 509 586 41,000  Level Salt Lake Center
Wed 09:47:30 AM 43.5261 -109.0572 92° East 489 563 41,000  Level Salt Lake Center
Wed 09:48:32 AM 43.5197 -108.8483 92° East 490 564 41,000  Level Salt Lake Center
Wed 09:49:33 AM 43.5133 -108.6653 93° East 498 573 41,000  Level Salt Lake Center
Wed 09:50:34 AM 43.5067 -108.4581 92° East 490 564 41,000  Level Salt Lake Center
Wed 09:51:36 AM 43.5000 -108.2819 93° East 483 556 41,000  Level Salt Lake Center
Wed 09:52:37 AM 43.4922 -108.0700 93° East 496 571 41,000  Level Salt Lake Center
Wed 09:53:39 AM 43.4847 -107.8894 93° East 496 571 41,000  Level Salt Lake Center
Wed 09:54:40 AM 43.4772 -107.7108 93° East 492 566 41,000  Level Salt Lake Center
Wed 09:55:42 AM 43.4700 -107.5022 93° East 490 564 41,000  Level Salt Lake Center
Wed 09:56:43 AM 43.4731 -107.3217 89° East 494 568 41,000  Level Salt Lake Center
Wed 09:57:18 AM 43.4761 -107.1986 88° East 499 574 41,000  Level Denver Center
Wed 09:57:45 AM 43.4769 -107.1083 89° East 500 575 41,000  Level Salt Lake Center
Wed 09:58:46 AM 43.4803 -106.9272 88° East 497 572 41,000  Level Salt Lake Center
Wed 09:59:21 AM 43.4836 -106.8142 88° East 494 568 41,000  Level Denver Center
Wed 10:00:22 AM 43.4864 -106.6322 89° East 497 572 41,000  Level Denver Center
Wed 10:00:49 AM 43.4872 -106.5422 89° East 498 573 41,000  Level Salt Lake Center
Wed 10:01:51 AM 43.4906 -106.3319 89° East 491 565 41,000  Level Salt Lake Center
Wed 10:02:25 AM 43.4917 -106.2428 89° East 486 559 41,000  Level Denver Center
Wed 10:03:38 AM 43.4928 -106.0311 90° East 496 571 41,000  Level Denver Center
Wed 10:04:40 AM 43.4950 -105.8125 89° East 510 587 41,000  Level Denver Center
Wed 10:05:42 AM 43.4967 -105.5958 89° East 505 581 41,000  Level Denver Center
Wed 10:06:43 AM 43.4986 -105.4403 89° East 508 585 41,000  Level Denver Center
Wed 10:07:45 AM 43.4986 -105.2208 90° East 511 588 41,000  Level Denver Center
Wed 10:08:46 AM 43.4989 -105.0036 90° East 509 586 41,000  Level Denver Center
Wed 10:09:48 AM 43.4592 -104.8381 108° East 495 570 41,000  Level Denver Center
Wed 10:10:49 AM 43.3253 -104.8178 174° South 446 513 41,000 -439 Level Denver Center
Wed 10:11:51 AM 43.2114 -104.8597 195° South 444 511 40,100 -488 Descending Denver Center
Wed 10:12:52 AM 43.0847 -104.9153 198° South 434 499 40,000 -49 Descending Denver Center
Wed 10:13:54 AM 42.9753 -104.9619 197° South 431 496 40,000  Level Denver Center
Wed 10:14:56 AM 42.8653 -105.0103 198° South 435 501 40,000  Level Denver Center
Wed 10:15:58 AM 42.7383 -105.0650 198° South 431 496 40,000  Level Denver Center
Wed 10:16:59 AM 42.6269 -105.1106 197° South 435 501 40,000  Level Denver Center
Wed 10:18:01 AM 42.5167 -105.1569 197° South 436 502 40,000  Level Denver Center
Wed 10:19:03 AM 42.3889 -105.2100 197° South 434 499 40,000  Level Denver Center
Wed 10:20:05 AM 42.2619 -105.2614 197° South 428 493 40,000  Level Denver Center
Wed 10:21:07 AM 42.1531 -105.3067 197° South 429 494 40,000  Level Denver Center
Wed 10:22:08 AM 42.0253 -105.3617 198° South 431 496 40,000 -341 Level Denver Center
Wed 10:23:10 AM 41.9164 -105.4047 196° South 429 494 39,300 -1,452 Descending Denver Center
Wed 10:24:12 AM 41.7869 -105.4572 197° South 435 501 37,000 -1,597 Descending Denver Center
Wed 10:25:14 AM 41.6756 -105.5033 197° South 438 504 36,000 -484 Descending Denver Center
Wed 10:26:16 AM 41.5450 -105.5561 197° South 439 505 36,000  Level Denver Center
Wed 10:27:18 AM 41.4303 -105.5867 191° South 440 506 36,000  Level Denver Center
Wed 10:28:20 AM 41.2875 -105.5656 174° South 458 527 36,000  Level Denver Center
Wed 10:29:22 AM 41.1711 -105.5508 175° South 443 510 36,000 -1,500 Level Denver Center
Wed 10:30:24 AM 41.0317 -105.5306 174° South 450 518 32,900 -2,758 Descending Denver Center
Wed 10:31:26 AM 40.9167 -105.5142 174° South 456 525 30,300 -2,710 Descending Denver Center
Wed 10:32:28 AM 40.7933 -105.4961 174° South 448 516 27,300 -3,242 Descending Denver Center
Wed 10:33:30 AM 40.6503 -105.4783 175° South 435 501 23,600 -2,419 Descending Denver Center
Wed 10:34:32 AM 40.5361 -105.4608 173° South 412 474 22,300 -1,113 Descending Denver Center
Wed 10:35:34 AM 40.4358 -105.4467 174° South 371 427 21,300 -1,500 Descending Denver Center
Wed 10:36:36 AM 40.3350 -105.3900 157° South 366 421 19,200 -2,081 Descending Denver Center
Wed 10:37:38 AM 40.2483 -105.3233 150° Southeast 364 419 17,000 -2,226 Descending Denver Center
Wed 10:38:40 AM 40.1569 -105.2531 150° Southeast 359 413 14,600 -2,032 Descending Denver Center
Wed 10:39:42 AM 40.0772 -105.1925 150° Southeast 335 386 12,800 -1,488 Descending Denver Center
Wed 10:40:45 AM 40.0033 -105.1350 149° Southeast 283 326 11,500 -1,344 Descending Denver Center
Wed 10:41:47 AM 39.9672 -105.0578 121° Southeast 247 284 10,000 -1,355 Descending Denver Center
Wed 10:42:49 AM 39.9353 -104.9803 118° Southeast 220 253 8,700 -1,220 Descending Denver Center
Wed 10:43:50 AM 39.9017 -104.9578 153° Southeast 201 231 7,500 -823 Descending Denver Center
Wed 10:44:53 AM 39.8703 -105.0186 236° Southwest 169 194 7,000 -720 Descending Denver Center
Wed 10:45:55 AM 39.8867 -105.0742 291° West 153 176 6,000 -726 Descending Denver Center
Wed 10:46:57 AM 39.9089 -105.1169 304° West 143 165 5,500 -484 Descending Denver Center
Wed 10:48:00 AM 39.9088 -105.1172 105° East  Level Estimated
Wed 10:55:00 AM 39.9088 -105.1172 70° East  Level Estimated
Wed 10:56:00 AM 39.9088 -105.1172 66° East  Level Estimated
Wed 10:57:00 AM 39.9088 -105.1172 70° East  Level Estimated

Login

Don't have an account? Register now (free) for customized features, flight alerts, and more!